createdAt,value
2019-01-18T00:00:43.605Z,2.40
2019-01-18T00:03:14.815Z,2.44
2019-01-18T00:05:45.938Z,2.40
2019-01-18T00:08:17.084Z,2.74
2019-01-18T00:10:48.291Z,2.79
2019-01-18T00:13:19.446Z,2.75
2019-01-18T00:15:50.617Z,2.73
2019-01-18T00:18:21.865Z,2.82
2019-01-18T00:20:52.956Z,2.60
2019-01-18T00:23:23.965Z,2.55
2019-01-18T00:25:55.135Z,2.63
2019-01-18T00:28:26.313Z,2.58
2019-01-18T00:30:57.451Z,2.61
2019-01-18T00:33:29.471Z,2.62
2019-01-18T00:36:00.534Z,2.65
2019-01-18T00:38:31.598Z,2.47
2019-01-18T00:41:02.750Z,2.41
2019-01-18T00:43:33.736Z,2.34
2019-01-18T00:46:04.921Z,2.24
2019-01-18T00:48:35.962Z,2.39
2019-01-18T00:51:07.107Z,2.48
2019-01-18T00:53:38.162Z,2.61
2019-01-18T00:56:09.315Z,1.96
2019-01-18T00:58:40.372Z,1.72
2019-01-18T01:01:11.754Z,1.77
2019-01-18T01:03:42.871Z,1.66
2019-01-18T01:06:14.072Z,1.62
2019-01-18T01:08:45.219Z,1.30
2019-01-18T01:11:16.364Z,1.15
2019-01-18T01:13:47.417Z,1.12
2019-01-18T01:16:18.580Z,1.20
2019-01-18T01:18:49.708Z,1.11
2019-01-18T01:21:20.881Z,1.11
2019-01-18T01:23:51.971Z,1.00
2019-01-18T01:26:23.107Z,1.05
2019-01-18T01:28:54.239Z,1.07
2019-01-18T01:31:25.326Z,1.00
2019-01-18T01:33:56.371Z,0.94
2019-01-18T01:36:27.518Z,1.10
2019-01-18T01:38:58.640Z,0.92
2019-01-18T01:41:29.862Z,0.94
2019-01-18T01:44:01.014Z,1.06
2019-01-18T01:46:32.151Z,0.93
2019-01-18T01:49:03.279Z,0.91
2019-01-18T01:51:34.473Z,0.79
2019-01-18T01:54:05.685Z,0.84
2019-01-18T01:56:36.836Z,0.83
2019-01-18T01:59:07.944Z,0.97
2019-01-18T02:01:39.025Z,0.88
2019-01-18T02:04:10.267Z,0.91
2019-01-18T02:06:41.330Z,0.88
2019-01-18T02:09:12.447Z,0.86
2019-01-18T02:11:43.607Z,0.95
2019-01-18T02:14:14.714Z,0.92
2019-01-18T02:16:47.832Z,0.82
2019-01-18T02:19:18.579Z,0.96
2019-01-18T02:21:49.706Z,0.89
2019-01-18T02:24:20.770Z,0.84
2019-01-18T02:26:51.832Z,0.89
2019-01-18T02:29:22.948Z,0.80
2019-01-18T02:31:54.119Z,0.93
2019-01-18T02:34:25.183Z,0.82
2019-01-18T02:36:56.347Z,0.82
2019-01-18T02:39:27.358Z,0.76
2019-01-18T02:41:58.560Z,1.00
2019-01-18T02:44:29.679Z,0.78
2019-01-18T02:47:00.750Z,0.81
2019-01-18T02:49:31.874Z,0.79
2019-01-18T02:52:03.046Z,0.77
2019-01-18T02:54:34.021Z,0.72
2019-01-18T02:57:06.153Z,0.86
2019-01-18T02:59:37.272Z,0.69
2019-01-18T03:02:08.429Z,0.66
2019-01-18T03:04:39.552Z,0.71
2019-01-18T03:07:11.056Z,0.56
2019-01-18T03:09:42.170Z,0.62
2019-01-18T03:12:13.222Z,0.50
2019-01-18T03:14:44.273Z,0.50
2019-01-18T03:17:15.491Z,0.52
2019-01-18T03:19:46.556Z,0.57
2019-01-18T03:22:17.554Z,0.50
2019-01-18T03:24:48.644Z,0.48
2019-01-18T03:27:19.715Z,0.54
2019-01-18T03:29:50.794Z,0.65
2019-01-18T03:32:21.880Z,0.62
2019-01-18T03:34:53.175Z,0.60
2019-01-18T03:37:24.322Z,0.47
2019-01-18T03:39:55.363Z,0.38
2019-01-18T03:42:26.508Z,0.39
2019-01-18T03:44:57.560Z,0.38
2019-01-18T03:47:28.912Z,0.36
2019-01-18T03:50:00.003Z,0.35
2019-01-18T03:52:31.125Z,0.35
2019-01-18T03:55:02.256Z,0.44
2019-01-18T03:57:33.340Z,0.40
2019-01-18T04:00:05.988Z,0.49
2019-01-18T04:02:37.057Z,0.61
2019-01-18T04:05:09.064Z,0.49
2019-01-18T04:07:40.207Z,0.71
2019-01-18T04:10:13.518Z,0.60
2019-01-18T04:12:45.921Z,0.49
2019-01-18T04:15:18.973Z,0.55
2019-01-18T04:17:50.131Z,0.47
2019-01-18T04:20:21.570Z,0.53
2019-01-18T04:22:52.748Z,0.56
2019-01-18T04:25:27.986Z,0.69
2019-01-18T04:28:00.043Z,0.28
2019-01-18T04:30:33.533Z,0.40
2019-01-18T04:33:03.815Z,0.50
2019-01-18T04:35:34.875Z,0.53
2019-01-18T04:38:06.069Z,0.47
2019-01-18T04:40:37.067Z,0.45
2019-01-18T04:43:08.267Z,0.46
2019-01-18T04:45:42.016Z,0.47
2019-01-18T04:48:12.255Z,0.51
2019-01-18T04:50:43.268Z,0.54
2019-01-18T04:53:14.421Z,0.50
2019-01-18T04:55:45.554Z,0.33
2019-01-18T04:58:16.584Z,0.30
2019-01-18T05:00:47.730Z,0.26
2019-01-18T05:03:18.811Z,0.36
2019-01-18T05:05:51.170Z,0.25
2019-01-18T05:08:22.158Z,0.26
2019-01-18T05:10:53.130Z,0.23
2019-01-18T05:13:24.214Z,0.25
2019-01-18T05:15:55.604Z,0.23
2019-01-18T05:18:26.755Z,0.09
2019-01-18T05:20:57.821Z,0.09
2019-01-18T05:23:28.893Z,0.14
2019-01-18T05:25:59.898Z,0.14
2019-01-18T05:28:31.012Z,0.05
2019-01-18T05:31:02.242Z,0.11
2019-01-18T05:33:33.313Z,0.26
2019-01-18T05:36:04.566Z,0.34
2019-01-18T05:38:35.805Z,0.49
2019-01-18T05:41:07.031Z,0.38
2019-01-18T05:43:38.031Z,0.29
2019-01-18T05:46:09.061Z,0.43
2019-01-18T05:48:40.073Z,0.44
2019-01-18T05:51:11.286Z,0.50
2019-01-18T05:53:42.404Z,0.42
2019-01-18T05:56:13.516Z,0.43
2019-01-18T05:58:45.676Z,0.46
2019-01-18T06:01:17.297Z,0.47
2019-01-18T06:03:48.459Z,0.31
2019-01-18T06:06:19.588Z,0.20
2019-01-18T06:08:50.750Z,0.39
2019-01-18T06:11:21.728Z,0.17
2019-01-18T06:13:52.818Z,0.12
2019-01-18T06:16:23.963Z,0.13
2019-01-18T06:18:55.130Z,0.29
2019-01-18T06:21:26.217Z,0.25
2019-01-18T06:23:57.228Z,0.13
2019-01-18T06:26:28.829Z,0.10
2019-01-18T06:29:00.919Z,0.04
2019-01-18T06:31:32.151Z,0.01
2019-01-18T06:34:03.562Z,0.01
2019-01-18T06:36:34.940Z,0.13
2019-01-18T06:39:07.885Z,-0.02
2019-01-18T06:41:48.873Z,0.06
2019-01-18T06:44:20.061Z,0.17
2019-01-18T06:46:51.550Z,0.09
2019-01-18T06:49:22.736Z,0.05
2019-01-18T06:51:54.121Z,0.09
2019-01-18T06:54:25.377Z,0.09
2019-01-18T06:56:56.524Z,0.22
2019-01-18T06:59:28.114Z,0.28
2019-01-18T07:01:59.135Z,0.16
2019-01-18T07:04:30.221Z,0.13
2019-01-18T07:07:02.453Z,0.18
2019-01-18T07:09:33.791Z,0.17
2019-01-18T07:12:04.941Z,0.28
2019-01-18T07:14:36.062Z,0.14
2019-01-18T07:17:07.195Z,0.17
2019-01-18T07:19:38.819Z,0.37
2019-01-18T07:22:10.151Z,0.38
2019-01-18T07:24:41.619Z,0.23
2019-01-18T07:27:12.780Z,0.27
2019-01-18T07:29:43.946Z,0.05
2019-01-18T07:32:15.094Z,0.07
2019-01-18T07:34:46.088Z,0.18
2019-01-18T07:37:17.142Z,0.33
2019-01-18T07:39:48.217Z,0.44
2019-01-18T07:42:19.428Z,0.52
2019-01-18T07:44:50.521Z,0.57
2019-01-18T07:47:21.572Z,0.33
2019-01-18T07:49:52.872Z,0.53
2019-01-18T07:52:24.089Z,0.83
2019-01-18T07:54:55.315Z,0.90
2019-01-18T07:57:26.362Z,0.81
2019-01-18T07:59:57.439Z,0.65
2019-01-18T08:02:28.757Z,0.91
2019-01-18T08:05:00.521Z,0.99
2019-01-18T08:07:31.650Z,1.15
2019-01-18T08:10:02.867Z,0.84
2019-01-18T08:12:33.969Z,0.61
2019-01-18T08:15:06.183Z,0.99
2019-01-18T08:17:37.327Z,1.07
2019-01-18T08:20:11.522Z,1.25
2019-01-18T08:22:42.975Z,1.15
2019-01-18T08:25:14.998Z,1.04
2019-01-18T08:27:46.285Z,0.83
2019-01-18T08:30:19.850Z,0.91
2019-01-18T08:32:50.898Z,1.16
2019-01-18T08:35:23.002Z,1.16
2019-01-18T08:37:54.163Z,0.96
2019-01-18T08:40:28.871Z,0.69
2019-01-18T08:42:59.922Z,0.75
2019-01-18T08:45:34.334Z,0.70
2019-01-18T08:48:06.702Z,0.79
2019-01-18T08:50:38.164Z,0.64
2019-01-18T08:53:09.374Z,0.74
2019-01-18T08:55:40.646Z,1.17
2019-01-18T08:58:11.751Z,1.23
2019-01-18T09:00:42.822Z,0.93
2019-01-18T09:03:13.964Z,0.83
2019-01-18T09:05:45.066Z,1.03
2019-01-18T09:08:16.030Z,1.13
2019-01-18T09:10:47.386Z,1.07
2019-01-18T09:13:18.540Z,1.08
2019-01-18T09:15:50.351Z,1.02
2019-01-18T09:18:21.359Z,1.60
2019-01-18T09:20:52.512Z,2.01
2019-01-18T09:23:23.632Z,1.75
2019-01-18T09:25:54.883Z,1.39
2019-01-18T09:28:26.058Z,1.60
2019-01-18T09:30:58.280Z,1.77
2019-01-18T09:33:29.352Z,1.16
2019-01-18T09:36:00.549Z,0.65
2019-01-18T09:38:31.824Z,0.65
2019-01-18T09:41:02.960Z,1.04
2019-01-18T09:43:34.089Z,1.05
2019-01-18T09:46:05.452Z,1.48
2019-01-18T09:48:36.652Z,1.37
2019-01-18T09:51:07.967Z,1.75
2019-01-18T09:53:39.018Z,1.75
2019-01-18T09:56:10.257Z,1.66
2019-01-18T09:58:41.339Z,1.71
2019-01-18T10:01:12.711Z,1.80
2019-01-18T10:03:43.852Z,1.98
2019-01-18T10:06:14.990Z,2.02
2019-01-18T10:08:46.065Z,2.02
2019-01-18T10:11:18.434Z,1.92
2019-01-18T10:13:50.630Z,1.98
2019-01-18T10:16:21.756Z,1.91
2019-01-18T10:18:52.847Z,1.40
2019-01-18T10:21:24.144Z,2.03
2019-01-18T10:23:55.324Z,2.68
2019-01-18T10:26:26.432Z,3.09
2019-01-18T10:28:57.491Z,3.41
2019-01-18T10:31:28.531Z,3.68
2019-01-18T10:33:59.583Z,3.70
2019-01-18T10:36:30.783Z,3.41
2019-01-18T10:39:01.926Z,2.48
2019-01-18T10:41:34.290Z,2.70
2019-01-18T10:44:06.168Z,1.50
2019-01-18T10:46:37.610Z,1.90
2019-01-18T10:49:08.732Z,2.38
2019-01-18T10:51:39.981Z,2.69
2019-01-18T10:54:11.147Z,2.43
2019-01-18T10:56:42.235Z,2.83
2019-01-18T10:59:13.325Z,2.31
2019-01-18T11:01:44.397Z,2.47
2019-01-18T11:04:15.472Z,2.44
2019-01-18T11:06:46.536Z,2.62
2019-01-18T11:09:17.756Z,2.52
2019-01-18T11:11:48.836Z,2.47
2019-01-18T11:14:19.955Z,2.48
2019-01-18T11:16:51.015Z,2.08
2019-01-18T11:19:22.172Z,2.10
2019-01-18T11:21:53.222Z,1.35
2019-01-18T11:24:24.330Z,1.80
2019-01-18T11:26:55.411Z,2.25
2019-01-18T11:29:26.540Z,2.22
2019-01-18T11:31:57.749Z,2.25
2019-01-18T11:34:28.888Z,2.86
2019-01-18T11:36:59.998Z,2.83
2019-01-18T11:39:31.102Z,2.80
2019-01-18T11:42:05.283Z,2.91
2019-01-18T11:44:35.185Z,3.46
2019-01-18T11:47:06.378Z,4.72
2019-01-18T11:49:37.642Z,4.31
2019-01-18T11:52:08.790Z,5.59
2019-01-18T11:54:43.980Z,4.11
2019-01-18T11:57:12.686Z,3.70
2019-01-18T11:59:49.034Z,3.68
2019-01-18T12:02:22.030Z,3.81
2019-01-18T12:04:50.467Z,2.96
2019-01-18T12:07:21.483Z,3.27
2019-01-18T12:09:52.515Z,2.98
2019-01-18T12:12:23.649Z,3.13
2019-01-18T12:14:54.723Z,4.14
2019-01-18T12:17:25.956Z,2.96
2019-01-18T12:19:57.225Z,5.17
2019-01-18T12:22:28.373Z,10.63
2019-01-18T12:24:59.375Z,13.10
2019-01-18T12:27:30.518Z,13.13
2019-01-18T12:30:01.829Z,17.70
2019-01-18T12:32:34.050Z,18.88
2019-01-18T12:35:05.666Z,10.49
2019-01-18T12:37:37.127Z,9.58
2019-01-18T12:40:08.237Z,8.57
2019-01-18T12:42:39.576Z,7.21
2019-01-18T12:45:13.840Z,5.05
2019-01-18T12:47:44.994Z,4.72
2019-01-18T12:50:39.266Z,4.68
2019-01-18T12:53:11.357Z,4.79
2019-01-18T12:55:42.502Z,5.13
2019-01-18T12:58:13.513Z,4.95
2019-01-18T13:00:44.725Z,4.53
2019-01-18T13:03:15.831Z,4.84
2019-01-18T13:05:52.057Z,6.81
2019-01-18T13:08:23.145Z,10.67
2019-01-18T13:10:54.294Z,16.93
2019-01-18T13:13:25.570Z,16.75
2019-01-18T13:16:38.170Z,21.14
2019-01-18T13:19:14.814Z,23.01
2019-01-18T13:21:45.881Z,17.04
2019-01-18T13:24:17.178Z,16.20
2019-01-18T13:26:48.327Z,13.73
2019-01-18T13:29:19.523Z,11.05
2019-01-18T13:31:50.673Z,8.63
2019-01-18T13:34:21.823Z,7.88
2019-01-18T13:36:53.067Z,7.47
2019-01-18T13:39:24.120Z,6.81
2019-01-18T13:41:55.335Z,6.19
2019-01-18T13:44:26.413Z,5.75
2019-01-18T13:46:57.515Z,5.27
2019-01-18T13:49:28.661Z,4.97
2019-01-18T13:51:59.764Z,4.63
2019-01-18T13:54:30.907Z,4.58
2019-01-18T13:57:02.062Z,4.64
2019-01-18T13:59:33.237Z,4.70
2019-01-18T14:02:04.438Z,4.81
2019-01-18T14:04:35.566Z,4.68
2019-01-18T14:07:06.784Z,4.74
2019-01-18T14:09:37.925Z,4.78
2019-01-18T14:12:08.977Z,4.62
2019-01-18T14:14:40.418Z,4.72
2019-01-18T14:17:11.577Z,4.59
2019-01-18T14:19:42.554Z,4.47
2019-01-18T14:22:13.634Z,4.46
2019-01-18T14:24:44.762Z,4.64
2019-01-18T14:27:16.873Z,4.60
2019-01-18T14:29:48.024Z,4.57
2019-01-18T14:32:19.221Z,4.75
2019-01-18T14:34:50.271Z,4.90
2019-01-18T14:37:21.419Z,5.58
2019-01-18T14:39:52.416Z,9.46
2019-01-18T14:42:23.557Z,12.58
2019-01-18T14:44:54.698Z,15.74
2019-01-18T14:47:25.714Z,14.94
2019-01-18T14:49:56.807Z,13.31
2019-01-18T14:52:27.954Z,11.99
2019-01-18T14:54:59.027Z,10.34
2019-01-18T14:57:30.122Z,9.17
2019-01-18T15:00:01.180Z,8.91
2019-01-18T15:02:32.230Z,8.36
2019-01-18T15:05:03.390Z,7.12
2019-01-18T15:07:34.508Z,6.56
2019-01-18T15:10:07.300Z,5.55
2019-01-18T15:12:38.411Z,5.18
2019-01-18T15:15:11.844Z,4.71
2019-01-18T15:17:43.090Z,4.32
2019-01-18T15:20:25.817Z,3.68
2019-01-18T15:22:56.958Z,3.42
2019-01-18T15:25:28.082Z,3.18
2019-01-18T15:28:00.991Z,2.96
2019-01-18T15:30:32.634Z,2.73
2019-01-18T15:33:09.063Z,2.49
2019-01-18T15:35:38.696Z,2.34
2019-01-18T15:38:11.186Z,2.18
2019-01-18T15:40:45.727Z,2.14
2019-01-18T15:43:22.692Z,1.81
2019-01-18T15:45:53.845Z,1.90
2019-01-18T15:48:24.889Z,1.70
2019-01-18T15:50:56.099Z,1.80
2019-01-18T15:53:27.303Z,1.66
2019-01-18T15:55:59.572Z,1.42
2019-01-18T15:58:30.649Z,1.29
2019-01-18T16:01:01.775Z,1.13
2019-01-18T16:03:32.814Z,1.00
2019-01-18T16:06:04.258Z,0.95
2019-01-18T16:08:35.395Z,0.76
2019-01-18T16:11:06.467Z,0.70
2019-01-18T16:13:37.443Z,0.57
2019-01-18T16:16:33.688Z,0.46
2019-01-18T16:19:04.941Z,0.46
2019-01-18T16:21:36.074Z,0.42
2019-01-18T16:24:07.186Z,0.44
2019-01-18T16:26:38.322Z,0.24
2019-01-18T16:29:09.629Z,0.13
2019-01-18T16:31:40.687Z,0.15
2019-01-18T16:34:11.770Z,-0.13
2019-01-18T16:36:43.927Z,-0.12
2019-01-18T16:39:15.081Z,-0.18
2019-01-18T16:41:46.222Z,-0.11
2019-01-18T16:44:17.367Z,-0.19
2019-01-18T16:46:48.818Z,-0.42
2019-01-18T16:49:19.915Z,-0.42
2019-01-18T16:51:50.995Z,-0.60
2019-01-18T16:54:23.323Z,-0.36
2019-01-18T16:56:54.599Z,-0.39
2019-01-18T16:59:25.694Z,-0.34
2019-01-18T17:01:56.774Z,-0.39
2019-01-18T17:04:27.858Z,-0.48
2019-01-18T17:06:58.983Z,-0.29
2019-01-18T17:09:30.103Z,-0.44
2019-01-18T17:12:01.094Z,-0.20
2019-01-18T17:14:32.167Z,-0.09
2019-01-18T17:17:03.314Z,-0.11
2019-01-18T17:19:34.380Z,-0.15
2019-01-18T17:22:05.543Z,-0.08
2019-01-18T17:24:36.606Z,-0.05
2019-01-18T17:27:07.694Z,-0.24
2019-01-18T17:29:38.756Z,-0.22
2019-01-18T17:32:09.936Z,-0.12
2019-01-18T17:34:41.092Z,0.08
2019-01-18T17:37:22.743Z,0.07
2019-01-18T17:40:44.088Z,-0.04
2019-01-18T17:43:43.510Z,-0.05
2019-01-18T17:46:42.341Z,-0.05
2019-01-18T17:49:39.317Z,0.03
2019-01-18T17:52:50.579Z,0.02
2019-01-18T17:55:55.600Z,0.07
2019-01-18T17:59:04.767Z,-0.06
2019-01-18T18:02:01.642Z,-0.13
2019-01-18T18:05:03.174Z,0.03
2019-01-18T18:08:30.332Z,0.37
2019-01-18T18:11:58.039Z,0.15
2019-01-18T18:14:45.152Z,0.11
2019-01-18T18:17:49.960Z,0.07
2019-01-18T18:20:54.185Z,0.06
2019-01-18T18:24:10.250Z,-0.16
2019-01-18T18:27:11.303Z,-0.36
2019-01-18T18:30:18.697Z,-0.33
2019-01-18T18:33:30.751Z,-0.50
2019-01-18T18:36:16.423Z,-0.47
2019-01-18T18:39:13.863Z,-0.65
2019-01-18T18:42:08.029Z,-0.72
2019-01-18T18:45:04.687Z,-0.77
2019-01-18T18:48:23.077Z,-0.58
2019-01-18T18:51:21.491Z,-0.45
2019-01-18T18:54:33.491Z,-0.52
2019-01-18T18:58:06.943Z,-0.33
2019-01-18T19:00:51.559Z,-0.42
2019-01-18T19:03:36.235Z,-0.46
2019-01-18T19:06:31.251Z,-0.54
2019-01-18T19:09:21.247Z,-0.56
2019-01-18T19:12:34.038Z,-0.80
2019-01-18T19:15:36.844Z,-0.80
2019-01-18T19:18:45.459Z,-0.67
2019-01-18T19:22:08.806Z,-0.81
2019-01-18T19:25:17.122Z,-0.99
2019-01-18T19:28:28.842Z,-1.14
2019-01-18T19:31:53.482Z,-1.23
2019-01-18T19:35:05.964Z,-1.05
2019-01-18T19:38:17.298Z,-1.24
2019-01-18T19:41:01.376Z,-1.27
2019-01-18T19:44:05.380Z,-1.22
2019-01-18T19:47:03.665Z,-1.11
2019-01-18T19:50:21.581Z,-1.31
2019-01-18T19:53:43.569Z,-1.47
2019-01-18T19:56:47.019Z,-1.52
2019-01-18T19:59:58.222Z,-1.48
2019-01-18T20:02:57.706Z,-1.63
2019-01-18T20:06:03.190Z,-1.63
2019-01-18T20:08:56.223Z,-1.64
2019-01-18T20:12:07.423Z,-1.65
2019-01-18T20:15:16.766Z,-1.68
2019-01-18T20:18:30.611Z,-1.82
2019-01-18T20:21:45.438Z,-1.85
2019-01-18T20:25:05.625Z,-1.67
2019-01-18T20:27:53.669Z,-1.72
2019-01-18T20:31:07.871Z,-1.84
2019-01-18T20:34:18.481Z,-1.88
2019-01-18T20:37:18.637Z,-1.72
2019-01-18T20:40:33.680Z,-1.70
2019-01-18T20:43:38.330Z,-1.95
2019-01-18T20:46:50.597Z,-1.63
2019-01-18T20:49:46.622Z,-1.78
2019-01-18T20:52:40.953Z,-1.85
2019-01-18T20:55:20.611Z,-1.90
2019-01-18T20:58:30.581Z,-1.79
2019-01-18T21:02:01.191Z,-1.86
2019-01-18T21:05:16.378Z,-1.73
2019-01-18T21:08:26.971Z,-1.74
2019-01-18T21:11:35.138Z,-1.82
2019-01-18T21:14:40.113Z,-1.94
2019-01-18T21:17:43.566Z,-1.95
2019-01-18T21:20:56.032Z,-1.99
2019-01-18T21:23:48.345Z,-2.08
2019-01-18T21:26:55.883Z,-2.17
2019-01-18T21:30:26.205Z,-1.86
2019-01-18T21:33:37.991Z,-2.03
2019-01-18T21:36:53.275Z,-1.89
2019-01-18T21:40:06.141Z,-1.92
2019-01-18T21:43:10.673Z,-2.10
2019-01-18T21:46:28.868Z,-1.97
2019-01-18T21:49:19.012Z,-1.99
2019-01-18T21:52:30.231Z,-2.26
2019-01-18T21:55:13.026Z,-2.32
2019-01-18T21:57:58.447Z,-2.30
2019-01-18T22:00:55.198Z,-1.96
2019-01-18T22:03:39.794Z,-2.10
2019-01-18T22:06:50.269Z,-1.91
2019-01-18T22:09:53.580Z,-2.15
2019-01-18T22:13:21.142Z,-1.95
2019-01-18T22:16:28.553Z,-2.13
2019-01-18T22:19:55.057Z,-2.08
2019-01-18T22:22:54.093Z,-2.07
2019-01-18T22:25:58.901Z,-2.17
2019-01-18T22:29:16.950Z,-2.16
2019-01-18T22:32:01.442Z,-2.26
2019-01-18T22:34:47.577Z,-2.33
2019-01-18T22:37:24.647Z,-2.34
2019-01-18T22:40:19.275Z,-2.36
2019-01-18T22:43:01.809Z,-2.36
2019-01-18T22:46:26.069Z,-2.46
2019-01-18T22:49:34.364Z,-2.49
2019-01-18T22:52:31.654Z,-2.50
2019-01-18T22:55:44.583Z,-2.49
2019-01-18T22:58:38.523Z,-2.42
2019-01-18T23:01:38.037Z,-2.35
2019-01-18T23:04:39.722Z,-2.27
2019-01-18T23:07:54.494Z,-2.43
2019-01-18T23:10:52.630Z,-2.45
2019-01-18T23:13:57.272Z,-2.28
2019-01-18T23:17:40.048Z,-2.40
2019-01-18T23:20:49.933Z,-2.42
2019-01-18T23:23:28.049Z,-2.42
2019-01-18T23:26:26.018Z,-2.48
2019-01-18T23:29:19.692Z,-2.31
2019-01-18T23:32:23.033Z,-2.46
2019-01-18T23:35:06.210Z,-2.49
2019-01-18T23:38:12.346Z,-2.47
2019-01-18T23:41:14.383Z,-2.56
2019-01-18T23:44:08.651Z,-2.51
2019-01-18T23:47:26.977Z,-2.37
2019-01-18T23:50:36.586Z,-2.55
2019-01-18T23:53:15.705Z,-2.37
2019-01-18T23:56:31.150Z,-2.45
2019-01-18T23:59:14.614Z,-2.52
